createdAt,value
2018-09-27T00:04:04.687Z,39.7
2018-09-27T00:09:01.216Z,39.7
2018-09-27T00:13:57.599Z,39.7
2018-09-27T00:18:54.797Z,39.7
2018-09-27T00:23:52.045Z,39.7
2018-09-27T00:28:49.298Z,39.7
2018-09-27T00:33:46.110Z,39.7
2018-09-27T00:38:43.167Z,39.8
2018-09-27T00:43:40.292Z,39.8
2018-09-27T00:48:37.163Z,39.8
2018-09-27T00:53:34.008Z,39.8
2018-09-27T00:58:31.061Z,39.8
2018-09-27T01:03:28.185Z,39.8
2018-09-27T01:08:25.295Z,39.8
2018-09-27T01:13:22.454Z,39.9
2018-09-27T01:18:19.561Z,39.9
2018-09-27T01:23:16.797Z,39.9
2018-09-27T01:28:13.641Z,39.9
2018-09-27T01:33:10.715Z,39.9
2018-09-27T01:38:07.845Z,39.9
2018-09-27T01:43:04.985Z,39.9
2018-09-27T01:48:02.262Z,39.9
2018-09-27T01:52:59.422Z,39.9
2018-09-27T01:57:56.551Z,39.9
2018-09-27T02:02:53.704Z,39.9
2018-09-27T02:07:50.555Z,40
2018-09-27T02:12:47.820Z,40
2018-09-27T02:17:44.936Z,40
2018-09-27T02:22:42.119Z,40
2018-09-27T02:27:39.209Z,40
2018-09-27T02:32:36.008Z,40
2018-09-27T02:37:33.016Z,40
2018-09-27T02:42:30.068Z,40
2018-09-27T02:47:27.170Z,40.1
2018-09-27T02:52:23.628Z,40.1
2018-09-27T02:57:20.669Z,40.1
2018-09-27T03:02:17.299Z,40.1
2018-09-27T03:07:14.233Z,40.1
2018-09-27T03:12:11.399Z,40.1
2018-09-27T03:17:08.685Z,40.1
2018-09-27T03:22:05.261Z,40.1
2018-09-27T03:27:02.318Z,40.2
2018-09-27T03:31:58.902Z,40.2
2018-09-27T03:36:56.057Z,40.2
2018-09-27T03:41:53.270Z,40.2
2018-09-27T03:46:50.324Z,40.2
2018-09-27T03:51:47.334Z,40.2
2018-09-27T03:56:44.250Z,40.2
2018-09-27T04:01:41.488Z,40.2
2018-09-27T04:06:38.541Z,40.3
2018-09-27T04:11:35.716Z,40.2
2018-09-27T04:16:32.566Z,40.2
2018-09-27T04:21:29.391Z,40.3
2018-09-27T04:26:26.378Z,40.3
2018-09-27T04:31:23.472Z,40.3
2018-09-27T04:36:20.581Z,40.3
2018-09-27T04:41:17.795Z,40.3
2018-09-27T04:46:14.678Z,40.3
2018-09-27T04:51:11.754Z,40.3
2018-09-27T04:56:08.267Z,40.3
2018-09-27T05:01:05.306Z,40.4
2018-09-27T05:06:02.078Z,40.4
2018-09-27T05:10:59.189Z,40.4
2018-09-27T05:15:56.401Z,40.4
2018-09-27T05:20:52.920Z,40.4
2018-09-27T05:25:50.030Z,40.4
2018-09-27T05:30:47.317Z,40.4
2018-09-27T05:35:44.111Z,40.5
2018-09-27T05:40:41.403Z,40.5
2018-09-27T05:45:38.773Z,40.5
2018-09-27T05:50:35.852Z,40.5
2018-09-27T05:55:33.456Z,40.5
2018-09-27T06:00:31.224Z,40.5
2018-09-27T06:05:29.000Z,40.5
2018-09-27T06:10:27.323Z,40.5
2018-09-27T06:15:24.990Z,40.6
2018-09-27T06:20:22.187Z,40.6
2018-09-27T06:25:19.359Z,40.6
2018-09-27T06:30:16.370Z,40.6
2018-09-27T06:35:14.217Z,40.7
2018-09-27T06:40:11.349Z,40.7
2018-09-27T06:45:08.685Z,40.7
2018-09-27T06:50:05.812Z,40.8
2018-09-27T06:55:03.671Z,40.9
2018-09-27T07:00:01.030Z,41
2018-09-27T07:04:58.626Z,41
2018-09-27T07:09:55.670Z,41
2018-09-27T07:14:52.777Z,41.1
2018-09-27T07:19:50.123Z,41.2
2018-09-27T07:24:47.327Z,41.2
2018-09-27T07:29:44.529Z,41.3
2018-09-27T07:34:41.531Z,41.3
2018-09-27T07:39:38.667Z,41.4
2018-09-27T07:44:35.917Z,41.4
2018-09-27T07:49:33.218Z,41.4
2018-09-27T07:54:30.923Z,41.4
2018-09-27T07:59:28.352Z,41.5
2018-09-27T08:04:25.375Z,41.5
2018-09-27T08:09:22.493Z,41.5
2018-09-27T08:14:19.698Z,41.5
2018-09-27T08:19:17.089Z,41.5
2018-09-27T08:24:14.159Z,41.5
2018-09-27T08:29:11.447Z,41.5
2018-09-27T08:34:08.537Z,41.5
2018-09-27T08:39:05.696Z,41.5
2018-09-27T08:44:02.395Z,41.5
2018-09-27T08:48:59.546Z,41.4
2018-09-27T08:53:56.909Z,41.3
2018-09-27T08:58:54.340Z,41.2
2018-09-27T09:03:51.220Z,41.3
2018-09-27T09:08:48.599Z,41.2
2018-09-27T09:13:45.864Z,41.2
2018-09-27T09:18:43.178Z,41.2
2018-09-27T09:23:40.433Z,41.2
2018-09-27T09:28:37.626Z,41.2
2018-09-27T09:33:35.032Z,41.2
2018-09-27T09:38:32.248Z,41.2
2018-09-27T09:43:29.507Z,41.1
2018-09-27T09:48:26.769Z,41.2
2018-09-27T09:53:24.039Z,41.2
2018-09-27T09:58:21.352Z,41.2
2018-09-27T10:03:17.899Z,41.2
2018-09-27T10:08:15.151Z,41.2
2018-09-27T10:13:11.735Z,41.2
2018-09-27T10:18:08.647Z,41.2
2018-09-27T10:23:06.110Z,41.2
2018-09-27T10:28:03.405Z,41.2
2018-09-27T10:33:00.612Z,41.2
2018-09-27T10:37:57.734Z,41.2
2018-09-27T10:42:55.097Z,41.2
2018-09-27T10:47:52.236Z,41.2
2018-09-27T10:52:49.513Z,41.2
2018-09-27T10:57:47.070Z,41.2
2018-09-27T11:02:43.965Z,41.2
2018-09-27T11:07:41.283Z,41.2
2018-09-27T11:12:38.761Z,41.2
2018-09-27T11:17:36.235Z,41.2
2018-09-27T11:22:32.989Z,41.1
2018-09-27T11:27:30.471Z,41.1
2018-09-27T11:32:27.995Z,41.2
2018-09-27T11:37:25.370Z,41
2018-09-27T11:42:22.835Z,41
2018-09-27T11:47:20.196Z,40.9
2018-09-27T11:52:17.633Z,40.9
2018-09-27T11:57:14.830Z,40.9
2018-09-27T12:02:12.073Z,41
2018-09-27T12:07:09.296Z,40.8
2018-09-27T12:12:07.006Z,40.9
2018-09-27T12:17:04.435Z,40.8
2018-09-27T12:22:01.561Z,40.9
2018-09-27T12:26:59.153Z,41
2018-09-27T12:31:56.386Z,41.1
2018-09-27T12:36:53.671Z,41.1
2018-09-27T12:41:51.412Z,41.2
2018-09-27T12:46:49.490Z,41.2
2018-09-27T12:51:46.768Z,41.2
2018-09-27T12:56:44.095Z,41.2
2018-09-27T13:01:41.477Z,41.2
2018-09-27T13:06:39.066Z,41.2
2018-09-27T13:11:41.165Z,41.2
2018-09-27T13:16:37.579Z,41.2
2018-09-27T13:21:35.042Z,41.2
2018-09-27T13:26:32.725Z,41.1
2018-09-27T13:31:30.332Z,41.1
2018-09-27T13:36:27.406Z,41.1
2018-09-27T13:41:24.195Z,41.1
2018-09-27T13:46:20.871Z,41.1
2018-09-27T13:51:18.120Z,41.1
2018-09-27T13:56:15.562Z,41.1
2018-09-27T14:01:12.922Z,41
2018-09-27T14:06:10.153Z,41
2018-09-27T14:11:07.621Z,41
2018-09-27T14:16:05.022Z,41
2018-09-27T14:21:02.365Z,40.9
2018-09-27T14:25:59.476Z,40.9
2018-09-27T14:30:57.034Z,40.8
2018-09-27T14:35:54.348Z,40.8
2018-09-27T14:40:51.887Z,40.8
2018-09-27T14:45:48.962Z,40.7
2018-09-27T14:50:46.338Z,40.6
2018-09-27T14:55:43.638Z,40.5
2018-09-27T15:00:41.258Z,40.4
2018-09-27T15:05:38.731Z,40.3
2018-09-27T15:10:36.163Z,40.3
2018-09-27T15:15:33.761Z,40.3
2018-09-27T15:20:31.332Z,40.2
2018-09-27T15:25:28.660Z,40.2
2018-09-27T15:30:25.988Z,40.2
2018-09-27T15:35:23.022Z,40.2
2018-09-27T15:40:20.419Z,40.2
2018-09-27T15:45:17.815Z,40.2
2018-09-27T15:50:15.294Z,40.2
2018-09-27T15:55:12.676Z,40.1
2018-09-27T16:00:10.100Z,40.1
2018-09-27T16:05:07.429Z,40.1
2018-09-27T16:10:04.780Z,40.1
2018-09-27T16:15:02.306Z,40
2018-09-27T16:19:59.746Z,40
2018-09-27T16:24:57.517Z,39.9
2018-09-27T16:29:54.763Z,39.9
2018-09-27T16:34:52.167Z,39.8
2018-09-27T16:39:49.859Z,39.8
2018-09-27T16:44:47.466Z,39.7
2018-09-27T16:49:44.522Z,39.7
2018-09-27T16:54:41.856Z,39.7
2018-09-27T16:59:38.918Z,39.7
2018-09-27T17:04:35.826Z,39.6
2018-09-27T17:09:32.594Z,39.6
2018-09-27T17:14:29.947Z,39.6
2018-09-27T17:19:27.907Z,39.7
2018-09-27T17:24:25.496Z,39.7
2018-09-27T17:29:22.930Z,39.8
2018-09-27T17:34:20.381Z,39.7
2018-09-27T17:39:17.713Z,39.7
2018-09-27T17:44:15.095Z,39.6
2018-09-27T17:49:12.715Z,39.6
2018-09-27T17:54:09.969Z,39.6
2018-09-27T17:59:07.385Z,39.5
2018-09-27T18:04:04.641Z,39.5
2018-09-27T18:09:01.966Z,39.5
2018-09-27T18:13:59.336Z,39.5
2018-09-27T18:18:56.585Z,39.5
2018-09-27T18:23:54.077Z,39.5
2018-09-27T18:28:51.700Z,39.5
2018-09-27T18:33:49.053Z,39.5
2018-09-27T18:38:46.254Z,39.5
2018-09-27T18:43:43.526Z,39.4
2018-09-27T18:48:40.867Z,39.4
2018-09-27T18:53:38.280Z,39.4
2018-09-27T18:58:35.692Z,39.4
2018-09-27T19:03:32.876Z,39.4
2018-09-27T19:08:30.186Z,39.4
2018-09-27T19:13:27.453Z,39.3
2018-09-27T19:18:25.128Z,39.3
2018-09-27T19:23:22.353Z,39.3
2018-09-27T19:28:19.459Z,39.3
2018-09-27T19:33:16.757Z,39.3
2018-09-27T19:38:14.135Z,39.3
2018-09-27T19:43:11.502Z,39.3
2018-09-27T19:48:08.449Z,39.3
2018-09-27T19:53:05.758Z,39.2
2018-09-27T19:58:02.983Z,39.3
2018-09-27T20:03:00.177Z,39.2
2018-09-27T20:07:57.463Z,39.3
2018-09-27T20:12:54.863Z,39.3
2018-09-27T20:17:51.478Z,39.3
2018-09-27T20:22:48.691Z,39.3
2018-09-27T20:27:46.014Z,39.3
2018-09-27T20:32:43.388Z,39.3
2018-09-27T20:37:40.762Z,39.3
2018-09-27T20:42:38.066Z,39.3
2018-09-27T20:47:35.424Z,39.4
2018-09-27T20:52:32.198Z,39.4
2018-09-27T20:57:29.431Z,39.4
2018-09-27T21:02:26.273Z,39.3
2018-09-27T21:07:23.542Z,39.3
2018-09-27T21:12:21.100Z,39.3
2018-09-27T21:17:18.673Z,39.3
2018-09-27T21:22:15.634Z,39.3
2018-09-27T21:27:13.843Z,39.3
2018-09-27T21:32:10.864Z,39.3
2018-09-27T21:37:08.452Z,39.3
2018-09-27T21:42:05.808Z,39.3
2018-09-27T21:47:03.037Z,39.3
2018-09-27T21:52:00.400Z,39.3
2018-09-27T21:56:57.688Z,39.3
2018-09-27T22:01:54.975Z,39.4
2018-09-27T22:06:52.307Z,39.4
2018-09-27T22:11:49.487Z,39.5
2018-09-27T22:16:46.817Z,39.5
2018-09-27T22:21:44.331Z,39.5
2018-09-27T22:26:42.354Z,39.5
2018-09-27T22:31:39.474Z,39.5
2018-09-27T22:36:36.705Z,39.5
2018-09-27T22:41:33.963Z,39.5
2018-09-27T22:46:31.315Z,39.6
2018-09-27T22:51:28.269Z,39.5
2018-09-27T22:56:25.170Z,39.5
2018-09-27T23:01:22.210Z,39.5
2018-09-27T23:06:19.419Z,39.6
2018-09-27T23:11:16.751Z,39.5
2018-09-27T23:16:14.107Z,39.5
2018-09-27T23:21:11.489Z,39.5
2018-09-27T23:26:08.948Z,39.5
2018-09-27T23:31:06.196Z,39.5
2018-09-27T23:36:03.536Z,39.5
2018-09-27T23:41:00.892Z,39.5
2018-09-27T23:45:57.981Z,39.6
2018-09-27T23:50:55.187Z,39.6
2018-09-27T23:55:52.515Z,39.6
